createdAt,value
2022-08-31T00:00:14.035Z,17.70
2022-08-31T00:03:00.137Z,17.60
2022-08-31T00:05:28.244Z,17.60
2022-08-31T00:07:55.560Z,17.60
2022-08-31T00:10:32.867Z,17.60
2022-08-31T00:13:07.023Z,17.60
2022-08-31T00:15:35.622Z,17.50
2022-08-31T00:18:02.889Z,17.40
2022-08-31T00:20:33.322Z,17.40
2022-08-31T00:23:07.212Z,17.50
2022-08-31T00:25:35.641Z,17.50
2022-08-31T00:28:03.347Z,17.40
2022-08-31T00:30:30.769Z,17.40
2022-08-31T00:32:58.700Z,17.30
2022-08-31T00:35:27.801Z,17.30
2022-08-31T00:37:55.052Z,17.30
2022-08-31T00:40:22.688Z,17.30
2022-08-31T00:42:49.726Z,17.40
2022-08-31T00:45:16.780Z,17.30
2022-08-31T00:47:43.754Z,17.30
2022-08-31T00:50:13.213Z,17.20
2022-08-31T00:52:43.403Z,17.20
2022-08-31T00:55:15.746Z,17.20
2022-08-31T00:57:47.976Z,17.20
2022-08-31T01:00:19.251Z,17.10
2022-08-31T01:02:47.314Z,17.20
2022-08-31T01:05:15.730Z,17.20
2022-08-31T01:07:47.711Z,17.10
2022-08-31T01:10:16.815Z,17.00
2022-08-31T01:12:45.920Z,17.00
2022-08-31T01:15:13.537Z,16.90
2022-08-31T01:17:42.225Z,17.00
2022-08-31T01:20:51.010Z,17.00
2022-08-31T01:23:29.247Z,17.10
2022-08-31T01:25:58.494Z,16.90
2022-08-31T01:28:26.265Z,16.90
2022-08-31T01:31:16.611Z,16.80
2022-08-31T01:33:43.638Z,16.90
2022-08-31T01:36:15.851Z,16.90
2022-08-31T01:38:43.678Z,16.80
2022-08-31T01:41:10.646Z,16.80
2022-08-31T01:43:40.288Z,16.70
2022-08-31T01:46:11.487Z,16.80
2022-08-31T01:48:41.513Z,16.70
2022-08-31T01:51:10.704Z,16.70
2022-08-31T01:53:42.648Z,16.60
2022-08-31T01:56:15.537Z,16.60
2022-08-31T01:58:43.166Z,16.60
2022-08-31T02:01:38.968Z,16.60
2022-08-31T02:04:08.517Z,16.60
2022-08-31T02:06:36.524Z,16.50
2022-08-31T02:09:06.960Z,16.60
2022-08-31T02:11:34.003Z,16.50
2022-08-31T02:14:01.111Z,16.50
2022-08-31T02:16:28.776Z,16.40
2022-08-31T02:18:55.966Z,16.40
2022-08-31T02:21:23.199Z,16.40
2022-08-31T02:23:50.297Z,16.50
2022-08-31T02:26:18.080Z,16.40
2022-08-31T02:28:46.769Z,16.40
2022-08-31T02:31:14.688Z,16.30
2022-08-31T02:33:49.285Z,16.30
2022-08-31T02:36:16.436Z,16.30
2022-08-31T02:38:44.083Z,16.30
2022-08-31T02:41:11.276Z,16.30
2022-08-31T02:43:40.531Z,16.10
2022-08-31T02:46:07.632Z,16.20
2022-08-31T02:48:41.503Z,16.10
2022-08-31T02:51:12.480Z,16.20
2022-08-31T02:53:40.121Z,16.20
2022-08-31T02:56:08.202Z,16.10
2022-08-31T02:58:36.571Z,16.10
2022-08-31T03:01:03.629Z,16.00
2022-08-31T03:03:32.799Z,16.10
2022-08-31T03:06:00.652Z,16.00
2022-08-31T03:08:28.523Z,16.10
2022-08-31T03:10:58.325Z,16.00
2022-08-31T03:13:25.310Z,16.00
2022-08-31T03:15:52.497Z,16.00
2022-08-31T03:18:19.566Z,15.90
2022-08-31T03:20:46.970Z,16.00
2022-08-31T03:23:15.405Z,15.90
2022-08-31T03:25:42.572Z,15.90
2022-08-31T03:28:09.546Z,15.90
2022-08-31T03:30:40.357Z,15.90
2022-08-31T03:33:10.262Z,15.80
2022-08-31T03:35:38.129Z,15.80
2022-08-31T03:38:05.421Z,15.80
2022-08-31T03:40:32.965Z,15.80
2022-08-31T03:43:00.206Z,15.70
2022-08-31T03:45:28.550Z,15.70
2022-08-31T03:47:55.918Z,15.70
2022-08-31T03:50:25.568Z,15.70
2022-08-31T03:53:04.503Z,15.70
2022-08-31T03:55:33.573Z,15.70
2022-08-31T03:58:00.890Z,15.60
2022-08-31T04:00:28.612Z,15.60
2022-08-31T04:03:02.248Z,15.50
2022-08-31T04:05:41.016Z,15.50
2022-08-31T04:08:26.427Z,15.50
2022-08-31T04:11:15.467Z,15.50
2022-08-31T04:14:00.850Z,15.30
2022-08-31T04:16:46.518Z,15.40
2022-08-31T04:19:17.688Z,15.40
2022-08-31T04:21:57.732Z,15.30
2022-08-31T04:24:25.338Z,15.20
2022-08-31T04:26:53.363Z,15.20
2022-08-31T04:29:21.975Z,15.20
2022-08-31T04:31:49.089Z,15.20
2022-08-31T04:34:16.387Z,15.30
2022-08-31T04:36:45.484Z,15.20
2022-08-31T04:39:13.905Z,15.30
2022-08-31T04:41:41.898Z,15.20
2022-08-31T04:44:15.354Z,15.10
2022-08-31T04:46:45.844Z,15.10
2022-08-31T04:49:14.704Z,15.10
2022-08-31T04:51:41.832Z,15.10
2022-08-31T04:54:11.804Z,15.10
2022-08-31T04:56:42.752Z,15.00
2022-08-31T04:59:12.761Z,15.00
2022-08-31T05:01:50.565Z,15.00
2022-08-31T05:04:36.502Z,14.80
2022-08-31T05:07:04.208Z,14.80
2022-08-31T05:09:31.310Z,14.90
2022-08-31T05:11:58.311Z,14.90
2022-08-31T05:14:26.186Z,15.00
2022-08-31T05:17:06.297Z,14.90
2022-08-31T05:19:41.431Z,15.00
2022-08-31T05:22:08.787Z,15.00
2022-08-31T05:24:38.907Z,15.00
2022-08-31T05:27:06.522Z,15.00
2022-08-31T05:29:33.875Z,14.80
2022-08-31T05:32:26.696Z,14.90
2022-08-31T05:34:55.361Z,14.90
2022-08-31T05:37:24.252Z,14.80
2022-08-31T05:39:51.734Z,14.80
2022-08-31T05:42:21.182Z,14.90
2022-08-31T05:44:48.582Z,14.90
2022-08-31T05:47:16.847Z,14.90
2022-08-31T05:49:44.785Z,14.80
2022-08-31T05:52:15.773Z,14.90
2022-08-31T05:54:43.922Z,14.90
2022-08-31T05:57:10.891Z,14.80
2022-08-31T05:59:39.450Z,14.80
2022-08-31T06:02:09.861Z,14.80
2022-08-31T06:04:36.936Z,14.90
2022-08-31T06:07:04.140Z,15.10
2022-08-31T06:09:39.073Z,15.20
2022-08-31T06:12:09.453Z,15.20
2022-08-31T06:14:36.849Z,15.20
2022-08-31T06:17:04.004Z,15.10
2022-08-31T06:19:32.213Z,15.10
2022-08-31T06:22:00.795Z,15.10
2022-08-31T06:24:27.962Z,15.20
2022-08-31T06:26:59.586Z,15.10
2022-08-31T06:29:31.575Z,15.20
2022-08-31T06:32:00.499Z,15.20
2022-08-31T06:34:29.253Z,15.30
2022-08-31T06:37:00.332Z,15.40
2022-08-31T06:39:33.012Z,15.50
2022-08-31T06:42:13.969Z,15.50
2022-08-31T06:44:59.316Z,15.60
2022-08-31T06:47:47.220Z,15.80
2022-08-31T06:50:17.911Z,15.80
2022-08-31T06:52:45.506Z,15.80
2022-08-31T06:55:20.613Z,15.90
2022-08-31T06:58:05.962Z,16.00
2022-08-31T07:00:52.966Z,15.90
2022-08-31T07:03:33.177Z,16.00
2022-08-31T07:06:10.299Z,16.00
2022-08-31T07:08:40.114Z,16.10
2022-08-31T07:11:30.143Z,16.20
2022-08-31T07:13:57.615Z,16.40
2022-08-31T07:16:28.119Z,16.50
2022-08-31T07:19:01.604Z,16.60
2022-08-31T07:21:31.675Z,16.70
2022-08-31T07:24:01.072Z,16.70
2022-08-31T07:26:48.622Z,16.80
2022-08-31T07:29:23.082Z,16.90
2022-08-31T07:31:50.692Z,17.00
2022-08-31T07:34:28.045Z,17.10
2022-08-31T07:37:34.101Z,17.10
2022-08-31T07:40:21.791Z,17.20
2022-08-31T07:42:48.867Z,17.30
2022-08-31T07:45:29.079Z,17.50
2022-08-31T07:48:00.529Z,17.50
2022-08-31T07:50:44.851Z,17.60
2022-08-31T07:53:18.366Z,17.70
2022-08-31T07:55:56.815Z,17.80
2022-08-31T07:58:50.315Z,18.00
2022-08-31T08:01:19.088Z,18.00
2022-08-31T08:03:46.470Z,18.20
2022-08-31T08:06:34.104Z,18.20
2022-08-31T08:09:30.352Z,18.30
2022-08-31T08:12:22.504Z,18.40
2022-08-31T08:15:12.264Z,18.60
2022-08-31T08:17:48.281Z,18.80
2022-08-31T08:20:37.200Z,18.80
2022-08-31T08:23:14.977Z,18.80
2022-08-31T08:26:09.508Z,19.00
2022-08-31T08:29:07.425Z,19.10
2022-08-31T08:31:39.147Z,19.20
2022-08-31T08:34:07.557Z,19.20
2022-08-31T08:36:37.318Z,19.20
2022-08-31T08:39:08.220Z,19.20
2022-08-31T08:41:40.115Z,19.40
2022-08-31T08:44:18.291Z,19.40
2022-08-31T08:46:54.444Z,19.50
2022-08-31T08:49:54.708Z,19.70
2022-08-31T08:52:30.391Z,19.60
2022-08-31T08:55:01.891Z,19.60
2022-08-31T08:57:36.254Z,19.60
2022-08-31T09:00:18.392Z,19.70
2022-08-31T09:03:02.955Z,19.90
2022-08-31T09:05:57.135Z,20.00
2022-08-31T09:08:57.280Z,20.20
2022-08-31T09:11:42.076Z,20.10
2022-08-31T09:14:36.787Z,20.40
2022-08-31T09:17:32.241Z,20.50
2022-08-31T09:20:00.490Z,20.40
2022-08-31T09:22:46.598Z,20.40
2022-08-31T09:25:52.763Z,20.60
2022-08-31T09:28:48.542Z,20.60
2022-08-31T09:31:38.418Z,20.90
2022-08-31T09:34:41.170Z,21.40
2022-08-31T09:37:23.544Z,21.40
2022-08-31T09:39:52.741Z,21.40
2022-08-31T09:42:33.766Z,21.40
2022-08-31T09:45:13.736Z,21.60
2022-08-31T09:47:52.501Z,21.60
2022-08-31T09:50:24.999Z,21.60
2022-08-31T09:53:14.949Z,21.70
2022-08-31T09:55:42.030Z,21.90
2022-08-31T09:58:11.495Z,22.00
2022-08-31T10:00:42.613Z,21.80
2022-08-31T10:03:28.398Z,22.00
2022-08-31T10:05:56.617Z,22.00
2022-08-31T10:08:58.323Z,22.00
2022-08-31T10:11:31.215Z,22.20
2022-08-31T10:14:09.696Z,22.10
2022-08-31T10:16:52.512Z,22.20
2022-08-31T10:19:30.330Z,22.60
2022-08-31T10:22:04.304Z,22.60
2022-08-31T10:24:52.538Z,22.70
2022-08-31T10:27:32.238Z,22.60
2022-08-31T10:30:19.009Z,22.70
2022-08-31T10:32:49.914Z,23.10
2022-08-31T10:35:26.179Z,23.00
2022-08-31T10:38:19.936Z,22.90
2022-08-31T10:40:50.596Z,22.80
2022-08-31T10:43:29.189Z,22.70
2022-08-31T10:45:59.735Z,23.00
2022-08-31T10:48:27.511Z,23.30
2022-08-31T10:51:06.734Z,23.30
2022-08-31T10:54:13.363Z,23.00
2022-08-31T10:57:02.429Z,23.30
2022-08-31T10:59:55.918Z,23.10
2022-08-31T11:02:55.495Z,23.30
2022-08-31T11:05:42.209Z,23.60
2022-08-31T11:08:24.001Z,23.60
2022-08-31T11:10:55.000Z,23.40
2022-08-31T11:13:38.464Z,23.80
2022-08-31T11:16:18.734Z,24.20
2022-08-31T11:19:10.460Z,24.00
2022-08-31T11:22:03.827Z,24.00
2022-08-31T11:24:51.595Z,23.90
2022-08-31T11:27:36.971Z,24.10
2022-08-31T11:30:20.124Z,23.80
2022-08-31T11:33:00.313Z,24.00
2022-08-31T11:36:05.435Z,24.30
2022-08-31T11:38:52.679Z,24.70
2022-08-31T11:41:33.209Z,24.30
2022-08-31T11:44:02.203Z,24.00
2022-08-31T11:46:29.616Z,24.60
2022-08-31T11:48:59.864Z,25.00
2022-08-31T11:51:38.608Z,24.80
2022-08-31T11:54:36.362Z,24.80
2022-08-31T11:57:06.346Z,24.50
2022-08-31T11:59:38.350Z,24.70
2022-08-31T12:02:21.128Z,24.60
2022-08-31T12:04:57.490Z,24.60
2022-08-31T12:07:31.645Z,24.40
2022-08-31T12:10:27.463Z,24.20
2022-08-31T12:13:25.552Z,24.40
2022-08-31T12:16:37.458Z,24.70
2022-08-31T12:19:44.357Z,24.80
2022-08-31T12:22:42.150Z,24.60
2022-08-31T12:25:24.952Z,24.90
2022-08-31T12:28:10.671Z,25.10
2022-08-31T12:30:49.762Z,25.40
2022-08-31T12:33:26.035Z,25.60
2022-08-31T12:35:56.455Z,25.40
2022-08-31T12:38:26.508Z,25.50
2022-08-31T12:40:55.991Z,25.30
2022-08-31T12:43:29.106Z,25.60
2022-08-31T12:46:13.691Z,25.80
2022-08-31T12:48:43.607Z,26.10
2022-08-31T12:51:35.286Z,25.70
2022-08-31T12:54:02.185Z,25.70
2022-08-31T12:56:50.214Z,25.50
2022-08-31T13:00:00.657Z,25.70
2022-08-31T13:02:33.002Z,25.50
2022-08-31T13:05:01.042Z,25.60
2022-08-31T13:07:33.971Z,25.50
2022-08-31T13:10:06.039Z,25.70
2022-08-31T13:12:33.269Z,25.70
2022-08-31T13:15:00.632Z,25.80
2022-08-31T13:17:35.564Z,26.10
2022-08-31T13:20:03.222Z,26.10
2022-08-31T13:22:41.351Z,25.90
2022-08-31T13:25:36.198Z,25.90
2022-08-31T13:28:10.868Z,26.00
2022-08-31T13:30:39.745Z,26.30
2022-08-31T13:33:31.325Z,26.10
2022-08-31T13:36:12.822Z,26.10
2022-08-31T13:39:19.164Z,25.90
2022-08-31T13:42:06.363Z,25.90
2022-08-31T13:44:47.029Z,25.90
2022-08-31T13:47:27.361Z,25.80
2022-08-31T13:50:16.705Z,25.90
2022-08-31T13:53:24.973Z,25.80
2022-08-31T13:55:46.705Z,25.70
2022-08-31T13:58:31.830Z,25.50
2022-08-31T14:01:25.577Z,25.60
2022-08-31T14:03:59.466Z,26.20
2022-08-31T14:06:34.879Z,26.20
2022-08-31T14:09:16.042Z,26.40
2022-08-31T14:11:53.520Z,26.30
2022-08-31T14:14:40.288Z,26.50
2022-08-31T14:17:15.502Z,26.70
2022-08-31T14:19:44.838Z,26.20
2022-08-31T14:22:33.171Z,26.30
2022-08-31T14:25:03.197Z,26.40
2022-08-31T14:27:30.385Z,26.30
2022-08-31T14:29:58.320Z,26.20
2022-08-31T14:32:25.758Z,25.90
2022-08-31T14:34:53.427Z,26.00
2022-08-31T14:37:22.314Z,25.80
2022-08-31T14:39:51.535Z,25.50
2022-08-31T14:42:24.791Z,25.10
2022-08-31T14:44:58.352Z,25.30
2022-08-31T14:47:28.990Z,26.00
2022-08-31T14:50:01.424Z,26.40
2022-08-31T14:52:28.509Z,26.10
2022-08-31T14:55:02.944Z,26.10
2022-08-31T14:57:32.986Z,26.20
2022-08-31T15:00:02.707Z,26.00
2022-08-31T15:02:35.451Z,25.70
2022-08-31T15:05:08.789Z,25.70
2022-08-31T15:07:39.491Z,25.40
2022-08-31T15:10:12.828Z,25.60
2022-08-31T15:12:40.434Z,25.90
2022-08-31T15:15:09.195Z,26.20
2022-08-31T15:17:36.669Z,26.00
2022-08-31T15:20:06.011Z,25.60
2022-08-31T15:22:35.157Z,25.60
2022-08-31T15:25:02.336Z,25.80
2022-08-31T15:27:30.694Z,25.80
2022-08-31T15:30:10.761Z,26.10
2022-08-31T15:32:46.855Z,26.40
2022-08-31T15:35:23.508Z,26.60
2022-08-31T15:37:58.994Z,26.40
2022-08-31T15:40:39.300Z,26.60
2022-08-31T15:43:18.245Z,26.30
2022-08-31T15:45:45.368Z,26.00
2022-08-31T15:48:31.090Z,26.20
2022-08-31T15:51:01.324Z,26.20
2022-08-31T15:53:32.037Z,25.90
2022-08-31T15:56:05.682Z,26.00
2022-08-31T15:58:34.400Z,26.20
2022-08-31T16:01:05.416Z,26.40
2022-08-31T16:03:35.222Z,26.10
2022-08-31T16:06:04.355Z,25.90
2022-08-31T16:08:31.332Z,25.80
2022-08-31T16:10:58.392Z,25.80
2022-08-31T16:13:25.214Z,25.70
2022-08-31T16:15:53.173Z,25.70
2022-08-31T16:18:22.167Z,25.60
2022-08-31T16:20:50.473Z,25.70
2022-08-31T16:23:18.074Z,25.80
2022-08-31T16:25:48.651Z,25.50
2022-08-31T16:28:22.845Z,25.70
2022-08-31T16:30:51.765Z,25.50
2022-08-31T16:33:19.083Z,25.80
2022-08-31T16:35:46.253Z,25.60
2022-08-31T16:38:13.592Z,25.70
2022-08-31T16:40:42.381Z,25.60
2022-08-31T16:43:10.628Z,25.50
2022-08-31T16:45:41.874Z,25.30
2022-08-31T16:48:29.380Z,25.00
2022-08-31T16:50:58.096Z,25.10
2022-08-31T16:53:27.944Z,25.00
2022-08-31T16:55:55.086Z,25.00
2022-08-31T16:58:40.929Z,25.00
2022-08-31T17:01:25.924Z,24.90
2022-08-31T17:03:56.268Z,24.90
2022-08-31T17:06:27.423Z,24.70
2022-08-31T17:08:56.795Z,24.50
2022-08-31T17:11:35.083Z,24.40
2022-08-31T17:14:04.688Z,24.30
2022-08-31T17:16:37.317Z,24.50
2022-08-31T17:19:08.503Z,24.40
2022-08-31T17:21:46.106Z,24.20
2022-08-31T17:24:16.096Z,24.10
2022-08-31T17:26:43.586Z,24.00
2022-08-31T17:29:12.293Z,24.00
2022-08-31T17:31:42.465Z,24.10
2022-08-31T17:34:12.177Z,24.00
2022-08-31T17:36:40.890Z,23.90
2022-08-31T17:39:09.894Z,23.80
2022-08-31T17:41:39.849Z,23.70
2022-08-31T17:44:07.870Z,23.60
2022-08-31T17:46:35.529Z,23.50
2022-08-31T17:49:13.745Z,23.40
2022-08-31T17:51:41.342Z,23.50
2022-08-31T17:54:12.380Z,23.50
2022-08-31T17:56:47.836Z,23.30
2022-08-31T17:59:21.845Z,23.30
2022-08-31T18:01:51.635Z,23.30
2022-08-31T18:04:20.513Z,23.20
2022-08-31T18:06:51.642Z,23.10
2022-08-31T18:09:21.195Z,23.10
2022-08-31T18:11:49.713Z,23.10
2022-08-31T18:14:21.578Z,23.10
2022-08-31T18:16:49.629Z,23.00
2022-08-31T18:19:17.900Z,22.90
2022-08-31T18:21:58.428Z,22.80
2022-08-31T18:24:26.045Z,22.90
2022-08-31T18:26:53.752Z,22.70
2022-08-31T18:29:24.874Z,22.70
2022-08-31T18:31:57.173Z,22.60
2022-08-31T18:34:25.327Z,22.50
2022-08-31T18:36:55.129Z,22.50
2022-08-31T18:39:50.006Z,22.50
2022-08-31T18:42:32.229Z,22.50
2022-08-31T18:45:20.124Z,22.40
2022-08-31T18:48:20.819Z,22.40
2022-08-31T18:50:45.514Z,22.30
2022-08-31T18:53:29.059Z,22.30
2022-08-31T18:56:16.881Z,22.30
2022-08-31T18:58:44.144Z,22.20
2022-08-31T19:01:13.318Z,22.10
2022-08-31T19:03:41.138Z,22.10
2022-08-31T19:06:09.134Z,21.90
2022-08-31T19:08:36.097Z,21.90
2022-08-31T19:11:07.268Z,21.80
2022-08-31T19:13:34.376Z,21.80
2022-08-31T19:16:10.723Z,21.80
2022-08-31T19:18:44.183Z,21.60
2022-08-31T19:21:20.436Z,21.60
2022-08-31T19:23:49.001Z,21.50
2022-08-31T19:26:37.378Z,21.60
2022-08-31T19:29:08.745Z,21.60
2022-08-31T19:31:39.116Z,21.70
2022-08-31T19:34:06.804Z,21.60
2022-08-31T19:36:35.272Z,21.60
2022-08-31T19:39:02.512Z,21.60
2022-08-31T19:41:31.373Z,21.50
2022-08-31T19:44:09.041Z,21.50
2022-08-31T19:46:39.301Z,21.50
2022-08-31T19:49:11.054Z,21.60
2022-08-31T19:51:53.710Z,21.60
2022-08-31T19:54:23.613Z,21.30
2022-08-31T19:56:53.009Z,21.40
2022-08-31T19:59:21.098Z,21.40
2022-08-31T20:01:52.206Z,21.40
2022-08-31T20:04:21.282Z,21.30
2022-08-31T20:06:52.174Z,21.40
2022-08-31T20:09:22.534Z,21.20
2022-08-31T20:11:51.050Z,21.30
2022-08-31T20:14:19.309Z,21.30
2022-08-31T20:16:46.687Z,21.30
2022-08-31T20:19:18.887Z,21.30
2022-08-31T20:21:51.439Z,21.30
2022-08-31T20:24:19.526Z,21.20
2022-08-31T20:26:51.953Z,21.10
2022-08-31T20:29:45.179Z,21.10
2022-08-31T20:32:19.064Z,21.00
2022-08-31T20:34:50.242Z,21.10
2022-08-31T20:37:19.070Z,21.10
2022-08-31T20:39:47.102Z,21.10
2022-08-31T20:42:15.763Z,20.90
2022-08-31T20:44:48.967Z,20.80
2022-08-31T20:47:35.061Z,20.70
2022-08-31T20:50:06.601Z,20.80
2022-08-31T20:52:35.386Z,20.80
2022-08-31T20:55:05.873Z,20.60
2022-08-31T20:57:34.407Z,20.60
2022-08-31T21:00:05.212Z,20.60
2022-08-31T21:02:34.597Z,20.50
2022-08-31T21:05:27.153Z,20.50
2022-08-31T21:07:49.532Z,20.30
2022-08-31T21:10:16.810Z,20.10
2022-08-31T21:12:49.157Z,20.10
2022-08-31T21:15:22.484Z,20.00
2022-08-31T21:17:56.811Z,19.90
2022-08-31T21:20:25.593Z,19.90
2022-08-31T21:22:53.439Z,19.80
2022-08-31T21:25:21.242Z,19.90
2022-08-31T21:27:48.337Z,19.70
2022-08-31T21:30:18.049Z,19.60
2022-08-31T21:32:46.740Z,19.30
2022-08-31T21:35:15.242Z,19.00
2022-08-31T21:37:42.515Z,19.20
2022-08-31T21:40:10.407Z,19.10
2022-08-31T21:42:37.450Z,18.90
2022-08-31T21:45:04.961Z,18.90
2022-08-31T21:47:31.985Z,18.80
2022-08-31T21:49:58.899Z,18.90
2022-08-31T21:52:25.942Z,18.90
2022-08-31T21:54:53.117Z,18.70
2022-08-31T21:57:22.338Z,18.70
2022-08-31T21:59:50.491Z,18.70
2022-08-31T22:02:17.801Z,18.80
2022-08-31T22:04:44.828Z,18.80
2022-08-31T22:07:14.520Z,18.90
2022-08-31T22:09:43.750Z,18.90
2022-08-31T22:12:15.090Z,18.70
2022-08-31T22:14:44.500Z,18.70
2022-08-31T22:17:13.085Z,18.70
2022-08-31T22:19:43.102Z,18.60
2022-08-31T22:22:12.804Z,18.60
2022-08-31T22:24:41.439Z,18.60
2022-08-31T22:27:10.802Z,18.60
2022-08-31T22:29:40.057Z,18.60
2022-08-31T22:32:12.688Z,18.40
2022-08-31T22:34:41.554Z,18.30
2022-08-31T22:37:09.110Z,18.30
2022-08-31T22:39:36.472Z,18.30
2022-08-31T22:42:04.625Z,18.30
2022-08-31T22:44:34.392Z,18.30
2022-08-31T22:47:01.994Z,18.20
2022-08-31T22:49:29.934Z,18.10
2022-08-31T22:51:57.917Z,18.00
2022-08-31T22:54:25.398Z,18.10
2022-08-31T22:56:52.470Z,18.10
2022-08-31T22:59:27.380Z,18.00
2022-08-31T23:02:02.106Z,17.90
2022-08-31T23:04:31.394Z,17.90
2022-08-31T23:06:59.202Z,18.00
2022-08-31T23:09:30.198Z,17.90
2022-08-31T23:11:59.841Z,17.80
2022-08-31T23:14:27.593Z,17.90
2022-08-31T23:16:57.833Z,17.80
2022-08-31T23:19:46.689Z,17.70
2022-08-31T23:22:15.207Z,17.60
2022-08-31T23:24:46.304Z,17.60
2022-08-31T23:27:17.030Z,17.60
2022-08-31T23:29:47.679Z,17.70
2022-08-31T23:32:17.498Z,17.60
2022-08-31T23:34:46.572Z,17.60
2022-08-31T23:37:14.206Z,17.70
2022-08-31T23:39:47.211Z,17.60
2022-08-31T23:42:16.869Z,17.60
2022-08-31T23:44:46.423Z,17.60
2022-08-31T23:47:22.472Z,17.40
2022-08-31T23:49:53.366Z,17.50
2022-08-31T23:52:23.862Z,17.50
2022-08-31T23:54:53.819Z,17.40
2022-08-31T23:57:32.292Z,17.30
